Colfax, Illinois
Current Conditions -  °F | °C
As of 5:56 PM on Saturday 25 Oct 2014 (Local Time) from KBMI Reporting Station
Clear Clear  
Wind Chill: 68°   Ceiling: Unl
Heat Index: 68°   Visibility: 10mi
Dew Point: 40°   Wind: 8mph
Humidity: 36%   Direction: 290°WNW
Pressure: 30"   Gusts: NA
Location:  40.57°N, 88.62°W
Report Text: KBMI 252256Z 29007KT 10SM CLR 20/04 A3000 RMK AO2 T02000044 SLP154
Loading
Personal Weather Stations






























Interactive Weather Map
Tropical Storm Tracking
New forecast layout! Learn more

10-Day Weather Forecast

Advertisements
Track Severe Weather on mobile